Impacts TAF Board
For situational awareness. Not to be used for flight planning purposes.
IDs:

KEFD - Houston/Ellington Ar, TX, US

Issued at 1200 UTC 14 Dec 2019
Updated at 1343 UTC 14 Dec 2019
Potential Impact None Slight Moderate High
Time1250Z 14/14Z 14/15Z 14/16Z 14/17Z 14/18Z 14/19Z 14/20Z 14/21Z 14/22Z 14/23Z 15/00Z 15/01Z 15/02Z>>
Type OBS PRVL PRVL PRVL PRVL PRVL PRVL PRVL PRVL PRVL PRVL PRVL PRVL PRVL
VIS 10 >6 >6 >6 >6 >6 >6 >6 >6 >6 >6 >6 >6 >6
CIG -- -- -- -- -- -- -- -- -- -- -- -- -- --
Cover SKC FEW FEW FEW FEW FEW FEW FEW FEW FEW FEW FEW FEW FEW
FltCat VFR VFR VFR VFR VFR VFR VFR VFR VFR VFR VFR VFR VFR VFR
WX -- -- -- -- -- -- -- -- -- -- -- -- -- --
WDir VRB VRB VRB VRB VRB VRB VRB VRB VRB VRB VRB VRB VRB VRB
WSpd 0 6 6 6 6 6 6 6 6 6 6 6 6 6
WGst -- -- -- -- -- -- -- -- -- -- -- -- -- --
Raw TAF
TAF KEFD 141200Z 1412/1518 VRB06KT 9999 FEW250 QNH2983INS TX21/1421Z TN08/1412Z

Raw METAR
KEFD 141250Z 00000KT 10SM SKC 09/07 A2987
KEFD 141150Z 00000KT 10SM SKC 09/07 A2986
KEFD 141050Z 00000KT 10SM FEW250 09/07 A2985

METAR Board
For situational awareness. Not to be used for flight planning purposes.